createdAt,value
2022-11-05T00:01:34.043Z,22.00
2022-11-05T00:04:19.514Z,20.33
2022-11-05T00:07:04.670Z,21.70
2022-11-05T00:09:31.246Z,21.50
2022-11-05T00:12:16.647Z,20.50
2022-11-05T00:15:02.003Z,18.90
2022-11-05T00:17:28.523Z,19.73
2022-11-05T00:19:55.046Z,19.53
2022-11-05T00:22:40.367Z,20.43
2022-11-05T00:25:19.108Z,19.30
2022-11-05T00:27:45.701Z,20.10
2022-11-05T00:30:12.263Z,21.50
2022-11-05T00:32:38.767Z,21.53
2022-11-05T00:35:05.261Z,19.60
2022-11-05T00:37:31.839Z,19.30
2022-11-05T00:39:58.368Z,18.37
2022-11-05T00:42:43.732Z,19.77
2022-11-05T00:45:10.227Z,22.37
2022-11-05T00:47:55.667Z,19.50
2022-11-05T00:50:22.235Z,21.37
2022-11-05T00:52:58.711Z,21.53
2022-11-05T00:55:25.401Z,21.40
2022-11-05T00:57:51.901Z,19.67
2022-11-05T01:00:18.504Z,21.37
2022-11-05T01:02:45.243Z,19.90
2022-11-05T01:05:11.896Z,20.87
2022-11-05T01:07:38.399Z,23.47
2022-11-05T01:10:04.868Z,22.10
2022-11-05T01:12:31.667Z,19.03
2022-11-05T01:14:58.244Z,20.20
2022-11-05T01:17:24.809Z,19.33
2022-11-05T01:19:51.298Z,19.47
2022-11-05T01:22:17.834Z,17.20
2022-11-05T01:24:44.363Z,16.77
2022-11-05T01:27:10.872Z,15.33
2022-11-05T01:29:37.455Z,15.30
2022-11-05T01:32:04.046Z,14.30
2022-11-05T01:34:30.548Z,13.37
2022-11-05T01:36:57.127Z,15.30
2022-11-05T01:39:23.657Z,15.20
2022-11-05T01:41:50.139Z,13.40
2022-11-05T01:44:16.622Z,14.67
2022-11-05T01:46:43.129Z,13.87
2022-11-05T01:49:09.881Z,13.27
2022-11-05T01:51:36.386Z,13.90
2022-11-05T01:54:02.887Z,14.17
2022-11-05T01:56:29.380Z,14.33
2022-11-05T01:58:55.901Z,14.60
2022-11-05T02:01:22.513Z,14.27
2022-11-05T02:03:49.095Z,13.30
2022-11-05T02:06:15.589Z,13.40
2022-11-05T02:08:42.568Z,12.30
2022-11-05T02:11:09.030Z,12.60
2022-11-05T02:13:35.514Z,11.10
2022-11-05T02:16:03.260Z,13.17
2022-11-05T02:18:29.796Z,12.30
2022-11-05T02:20:56.363Z,13.17
2022-11-05T02:23:22.858Z,11.07
2022-11-05T02:25:49.348Z,10.20
2022-11-05T02:28:15.912Z,10.43
2022-11-05T02:30:42.549Z,11.03
2022-11-05T02:33:09.226Z,10.70
2022-11-05T02:35:35.922Z,10.73
2022-11-05T02:38:02.420Z,10.80
2022-11-05T02:40:28.978Z,10.93
2022-11-05T02:42:55.466Z,10.03
2022-11-05T02:45:22.062Z,10.20
2022-11-05T02:47:48.546Z,11.20
2022-11-05T02:50:15.032Z,10.53
2022-11-05T02:52:41.589Z,9.17
2022-11-05T02:55:08.093Z,10.60
2022-11-05T02:57:34.612Z,10.33
2022-11-05T03:00:01.087Z,11.37
2022-11-05T03:02:27.703Z,10.63
2022-11-05T03:04:54.313Z,10.93
2022-11-05T03:07:21.342Z,9.80
2022-11-05T03:09:47.823Z,8.13
2022-11-05T03:12:14.330Z,10.00
2022-11-05T03:14:40.817Z,9.60
2022-11-05T03:17:07.384Z,8.40
2022-11-05T03:19:33.857Z,9.50
2022-11-05T03:22:00.362Z,9.93
2022-11-05T03:24:26.865Z,10.00
2022-11-05T03:26:53.532Z,11.10
2022-11-05T03:29:20.094Z,11.97
2022-11-05T03:31:46.579Z,13.33
2022-11-05T03:34:13.056Z,11.83
2022-11-05T03:36:41.126Z,10.47
2022-11-05T03:39:07.635Z,11.67
2022-11-05T03:41:34.181Z,11.53
2022-11-05T03:44:00.693Z,12.87
2022-11-05T03:46:27.209Z,12.87
2022-11-05T03:48:55.126Z,13.50
2022-11-05T03:51:21.636Z,13.53
2022-11-05T03:53:48.155Z,13.80
2022-11-05T03:56:14.686Z,12.97
2022-11-05T03:58:41.199Z,12.60
2022-11-05T04:01:07.704Z,12.37
2022-11-05T04:03:36.452Z,14.70
2022-11-05T04:06:21.944Z,13.00
2022-11-05T04:09:07.086Z,12.83
2022-11-05T04:11:52.423Z,14.73
2022-11-05T04:14:18.932Z,15.57
2022-11-05T04:17:04.316Z,16.47
2022-11-05T04:19:49.460Z,14.77
2022-11-05T04:22:35.047Z,14.13
2022-11-05T04:25:01.560Z,13.90
2022-11-05T04:27:28.097Z,14.37
2022-11-05T04:30:13.437Z,14.50
2022-11-05T04:32:39.938Z,14.63
2022-11-05T04:35:06.427Z,14.27
2022-11-05T04:37:32.971Z,14.60
2022-11-05T04:39:59.680Z,13.77
2022-11-05T04:42:26.271Z,13.93
2022-11-05T04:44:52.843Z,15.00
2022-11-05T04:47:19.347Z,12.93
2022-11-05T04:49:45.863Z,13.57
2022-11-05T04:52:12.379Z,14.63
2022-11-05T04:54:38.890Z,16.07
2022-11-05T04:57:05.453Z,16.83
2022-11-05T04:59:31.958Z,15.53
2022-11-05T05:01:58.539Z,16.20
2022-11-05T05:04:25.139Z,15.27
2022-11-05T05:06:51.622Z,13.47
2022-11-05T05:09:18.127Z,14.13
2022-11-05T05:11:44.632Z,15.13
2022-11-05T05:14:11.151Z,15.27
2022-11-05T05:16:37.645Z,15.47
2022-11-05T05:19:04.135Z,15.83
2022-11-05T05:21:40.280Z,15.60
2022-11-05T05:24:08.628Z,16.60
2022-11-05T05:26:35.520Z,16.87
2022-11-05T05:29:02.046Z,15.67
2022-11-05T05:31:28.536Z,18.90
2022-11-05T05:33:55.066Z,18.23
2022-11-05T05:36:21.631Z,17.97
2022-11-05T05:38:48.181Z,20.67
2022-11-05T05:41:14.693Z,19.73
2022-11-05T05:43:41.194Z,18.70
2022-11-05T05:46:07.690Z,20.63
2022-11-05T05:48:34.170Z,19.60
2022-11-05T05:51:01.325Z,20.07
2022-11-05T05:53:27.797Z,19.70
2022-11-05T05:55:54.367Z,20.50
2022-11-05T05:58:20.895Z,19.80
2022-11-05T06:00:47.388Z,20.13
2022-11-05T06:03:14.412Z,20.40
2022-11-05T06:05:41.203Z,19.03
2022-11-05T06:08:07.673Z,20.17
2022-11-05T06:10:34.200Z,20.20
2022-11-05T06:13:00.763Z,18.33
2022-11-05T06:15:31.745Z,19.37
2022-11-05T06:18:01.180Z,21.20
2022-11-05T06:20:27.723Z,18.10
2022-11-05T06:22:54.239Z,17.57
2022-11-05T06:25:20.768Z,19.13
2022-11-05T06:27:47.294Z,17.70
2022-11-05T06:30:13.834Z,17.63
2022-11-05T06:32:40.344Z,18.80
2022-11-05T06:35:06.924Z,15.23
2022-11-05T06:37:33.829Z,15.80
2022-11-05T06:40:00.403Z,15.00
2022-11-05T06:42:26.978Z,15.87
2022-11-05T06:44:53.475Z,15.97
2022-11-05T06:47:20.023Z,18.83
2022-11-05T06:49:46.546Z,16.87
2022-11-05T06:52:13.097Z,16.07
2022-11-05T06:54:39.632Z,15.70
2022-11-05T06:57:06.237Z,15.87
2022-11-05T06:59:32.769Z,16.07
2022-11-05T07:01:59.314Z,16.93
2022-11-05T07:04:25.860Z,17.40
2022-11-05T07:06:52.352Z,17.80
2022-11-05T07:09:18.834Z,17.47
2022-11-05T07:11:45.382Z,18.90
2022-11-05T07:14:11.888Z,18.87
2022-11-05T07:16:38.607Z,15.27
2022-11-05T07:19:05.105Z,18.33
2022-11-05T07:21:31.587Z,17.37
2022-11-05T07:23:58.054Z,18.90
2022-11-05T07:26:24.620Z,18.53
2022-11-05T07:28:51.145Z,17.03
2022-11-05T07:31:17.652Z,16.63
2022-11-05T07:33:44.220Z,19.13
2022-11-05T07:36:10.757Z,18.77
2022-11-05T07:38:37.317Z,17.70
2022-11-05T07:41:03.858Z,19.47
2022-11-05T07:43:30.418Z,18.50
2022-11-05T07:45:56.992Z,17.20
2022-11-05T07:48:23.479Z,18.50
2022-11-05T07:50:49.959Z,18.97
2022-11-05T07:53:16.463Z,17.30
2022-11-05T07:55:43.388Z,17.70
2022-11-05T07:58:09.889Z,18.07
2022-11-05T08:00:36.447Z,17.87
2022-11-05T08:03:07.692Z,17.50
2022-11-05T08:05:36.627Z,16.80
2022-11-05T08:08:03.162Z,16.90
2022-11-05T08:10:29.987Z,16.70
2022-11-05T08:12:56.571Z,15.90
2022-11-05T08:15:23.067Z,14.77
2022-11-05T08:17:49.673Z,14.30
2022-11-05T08:20:16.226Z,16.20
2022-11-05T08:22:43.423Z,15.80
2022-11-05T08:25:10.004Z,14.43
2022-11-05T08:27:36.596Z,15.10
2022-11-05T08:30:03.148Z,13.00
2022-11-05T08:32:29.638Z,13.50
2022-11-05T08:34:56.155Z,14.77
2022-11-05T08:37:22.644Z,12.87
2022-11-05T08:39:49.107Z,13.67
2022-11-05T08:42:15.751Z,15.37
2022-11-05T08:44:42.280Z,12.50
2022-11-05T08:47:08.894Z,14.80
2022-11-05T08:49:35.413Z,16.57
2022-11-05T08:52:01.976Z,15.67
2022-11-05T08:54:28.542Z,15.30
2022-11-05T08:56:55.056Z,14.90
2022-11-05T08:59:21.585Z,15.07
2022-11-05T09:01:50.391Z,14.73
2022-11-05T09:04:17.044Z,15.13
2022-11-05T09:06:43.610Z,15.60
2022-11-05T09:09:10.076Z,16.50
2022-11-05T09:11:57.405Z,14.00
2022-11-05T09:14:23.182Z,14.07
2022-11-05T09:16:49.826Z,12.97
2022-11-05T09:19:16.362Z,11.90
2022-11-05T09:21:42.866Z,11.77
2022-11-05T09:24:09.433Z,10.57
2022-11-05T09:26:35.979Z,9.63
2022-11-05T09:29:02.497Z,11.37
2022-11-05T09:31:28.993Z,10.30
2022-11-05T09:33:55.533Z,9.27
2022-11-05T09:36:22.082Z,9.20
2022-11-05T09:38:48.566Z,9.80
2022-11-05T09:41:15.282Z,9.40
2022-11-05T09:43:41.817Z,8.40
2022-11-05T09:46:08.598Z,8.33
2022-11-05T09:48:35.121Z,6.93
2022-11-05T09:51:01.894Z,8.03
2022-11-05T09:53:28.513Z,7.17
2022-11-05T09:55:54.995Z,6.13
2022-11-05T09:58:27.478Z,7.03
2022-11-05T10:00:55.206Z,7.20
2022-11-05T10:03:21.729Z,7.03
2022-11-05T10:05:48.313Z,7.40
2022-11-05T10:08:16.910Z,6.00
2022-11-05T10:10:43.438Z,6.70
2022-11-05T10:13:10.168Z,6.57
2022-11-05T10:15:47.267Z,7.63
2022-11-05T10:18:14.734Z,8.67
2022-11-05T10:20:41.380Z,6.07
2022-11-05T10:23:07.987Z,8.57
2022-11-05T10:25:34.601Z,6.23
2022-11-05T10:28:01.122Z,6.03
2022-11-05T10:30:27.767Z,5.83
2022-11-05T10:32:54.268Z,6.33
2022-11-05T10:35:22.491Z,7.73
2022-11-05T10:37:49.003Z,6.87
2022-11-05T10:40:15.547Z,6.97
2022-11-05T10:42:42.071Z,6.17
2022-11-05T10:45:08.625Z,6.30
2022-11-05T10:47:35.148Z,6.10
2022-11-05T10:50:01.665Z,5.37
2022-11-05T10:52:29.134Z,5.83
2022-11-05T10:54:55.656Z,6.43
2022-11-05T10:57:22.127Z,7.00
2022-11-05T10:59:48.616Z,6.30
2022-11-05T11:02:15.187Z,7.10
2022-11-05T11:04:41.759Z,6.47
2022-11-05T11:07:08.288Z,7.17
2022-11-05T11:09:34.905Z,6.43
2022-11-05T11:12:01.635Z,7.63
2022-11-05T11:14:28.166Z,6.70
2022-11-05T11:16:57.461Z,6.60
2022-11-05T11:19:24.025Z,6.87
2022-11-05T11:21:50.525Z,7.03
2022-11-05T11:24:16.989Z,6.40
2022-11-05T11:26:43.523Z,6.43
2022-11-05T11:29:10.019Z,5.50
2022-11-05T11:31:36.548Z,7.57
2022-11-05T11:34:03.112Z,5.90
2022-11-05T11:36:29.600Z,6.07
2022-11-05T11:38:56.072Z,7.30
2022-11-05T11:41:22.953Z,5.70
2022-11-05T11:43:49.478Z,5.70
2022-11-05T11:46:16.021Z,6.60
2022-11-05T11:48:43.197Z,5.30
2022-11-05T11:51:09.781Z,6.47
2022-11-05T11:53:36.318Z,6.00
2022-11-05T11:56:02.844Z,5.50
2022-11-05T11:58:29.334Z,5.93
2022-11-05T12:00:55.833Z,6.07
2022-11-05T12:03:22.395Z,6.50
2022-11-05T12:05:49.058Z,5.67
2022-11-05T12:08:15.577Z,5.43
2022-11-05T12:10:42.079Z,5.90
2022-11-05T12:13:08.774Z,4.10
2022-11-05T12:15:35.475Z,5.10
2022-11-05T12:18:02.285Z,5.07
2022-11-05T12:20:29.957Z,5.00
2022-11-05T12:22:56.430Z,5.40
2022-11-05T12:25:22.939Z,4.43
2022-11-05T12:27:49.410Z,4.40
2022-11-05T12:30:16.004Z,4.70
2022-11-05T12:32:42.597Z,4.10
2022-11-05T12:35:09.283Z,3.53
2022-11-05T12:37:36.138Z,5.00
2022-11-05T12:40:02.800Z,4.23
2022-11-05T12:42:29.310Z,4.33
2022-11-05T12:44:55.931Z,3.80
2022-11-05T12:47:22.404Z,3.90
2022-11-05T12:49:48.950Z,4.70
2022-11-05T12:52:15.469Z,4.70
2022-11-05T12:54:41.972Z,4.57
2022-11-05T12:57:08.511Z,3.50
2022-11-05T12:59:35.033Z,3.50
2022-11-05T13:02:01.697Z,3.17
2022-11-05T13:04:28.254Z,3.60
2022-11-05T13:06:54.806Z,3.37
2022-11-05T13:09:21.357Z,3.47
2022-11-05T13:11:47.881Z,3.03
2022-11-05T13:14:14.382Z,3.17
2022-11-05T13:16:40.897Z,2.87
2022-11-05T13:19:07.376Z,3.17
2022-11-05T13:21:33.890Z,3.90
2022-11-05T13:24:00.434Z,3.70
2022-11-05T13:26:26.926Z,3.37
2022-11-05T13:28:53.433Z,3.40
2022-11-05T13:31:19.901Z,3.30
2022-11-05T13:33:46.419Z,3.40
2022-11-05T13:36:31.684Z,4.07
2022-11-05T13:39:02.478Z,3.60
2022-11-05T13:41:29.008Z,3.07
2022-11-05T13:43:55.536Z,3.97
2022-11-05T13:46:22.522Z,2.77
2022-11-05T13:48:49.010Z,3.40
2022-11-05T13:51:15.512Z,3.60
2022-11-05T13:53:42.629Z,3.80
2022-11-05T13:56:09.612Z,2.90
2022-11-05T13:58:36.107Z,2.77
2022-11-05T14:01:02.693Z,3.60
2022-11-05T14:03:29.242Z,2.93
2022-11-05T14:05:55.763Z,3.57
2022-11-05T14:08:22.280Z,2.90
2022-11-05T14:10:48.813Z,3.50
2022-11-05T14:13:15.300Z,2.40
2022-11-05T14:15:41.803Z,2.93
2022-11-05T14:18:08.279Z,2.50
2022-11-05T14:20:35.164Z,2.47
2022-11-05T14:23:04.984Z,2.40
2022-11-05T14:25:35.327Z,3.17
2022-11-05T14:28:01.807Z,2.80
2022-11-05T14:30:28.281Z,3.10
2022-11-05T14:32:55.497Z,2.70
2022-11-05T14:35:21.989Z,2.17
2022-11-05T14:37:48.477Z,3.60
2022-11-05T14:40:14.988Z,3.00
2022-11-05T14:42:41.459Z,3.00
2022-11-05T14:45:07.987Z,3.23
2022-11-05T14:47:34.492Z,2.67
2022-11-05T14:50:01.030Z,3.40
2022-11-05T14:52:27.548Z,3.43
2022-11-05T14:54:54.077Z,2.90
2022-11-05T14:57:20.617Z,3.00
2022-11-05T14:59:47.180Z,3.00
2022-11-05T15:02:13.802Z,3.03
2022-11-05T15:04:42.575Z,2.80
2022-11-05T15:07:09.073Z,3.57
2022-11-05T15:09:35.658Z,3.23
2022-11-05T15:12:02.402Z,3.57
2022-11-05T15:14:28.927Z,3.20
2022-11-05T15:16:55.412Z,4.07
2022-11-05T15:19:21.898Z,2.90
2022-11-05T15:21:48.417Z,3.53
2022-11-05T15:24:14.915Z,5.93
2022-11-05T15:26:41.710Z,3.97
2022-11-05T15:29:08.220Z,4.30
2022-11-05T15:31:34.703Z,3.57
2022-11-05T15:34:01.266Z,3.63
2022-11-05T15:36:27.866Z,3.20
2022-11-05T15:39:22.848Z,3.07
2022-11-05T15:41:40.951Z,2.50
2022-11-05T15:44:07.512Z,2.70
2022-11-05T15:46:33.987Z,2.73
2022-11-05T15:49:00.491Z,2.43
2022-11-05T15:51:26.984Z,2.50
2022-11-05T15:54:23.772Z,2.03
2022-11-05T15:56:39.974Z,1.60
2022-11-05T15:59:06.490Z,2.47
2022-11-05T16:01:33.164Z,2.07
2022-11-05T16:03:59.793Z,1.93
2022-11-05T16:06:26.283Z,1.97
2022-11-05T16:08:52.823Z,3.90
2022-11-05T16:11:19.297Z,4.10
2022-11-05T16:13:45.773Z,2.33
2022-11-05T16:16:12.254Z,2.10
2022-11-05T16:18:38.832Z,2.67
2022-11-05T16:21:05.362Z,2.87
2022-11-05T16:23:31.879Z,2.90
2022-11-05T16:25:58.481Z,3.70
2022-11-05T16:28:25.130Z,2.50
2022-11-05T16:30:51.614Z,3.70
2022-11-05T16:33:18.242Z,2.60
2022-11-05T16:35:44.724Z,2.43
2022-11-05T16:38:11.558Z,2.70
2022-11-05T16:40:38.176Z,2.83
2022-11-05T16:43:04.654Z,2.70
2022-11-05T16:45:31.249Z,3.17
2022-11-05T16:47:57.934Z,3.00
2022-11-05T16:50:24.484Z,3.83
2022-11-05T16:52:51.037Z,4.00
2022-11-05T16:55:17.566Z,3.57
2022-11-05T16:57:44.408Z,3.90
2022-11-05T17:00:10.892Z,3.13
2022-11-05T17:02:37.560Z,3.07
2022-11-05T17:05:04.211Z,3.17
2022-11-05T17:07:30.743Z,4.63
2022-11-05T17:09:57.825Z,3.87
2022-11-05T17:12:24.415Z,3.67
2022-11-05T17:14:50.902Z,4.00
2022-11-05T17:17:17.408Z,4.33
2022-11-05T17:19:43.944Z,4.30
2022-11-05T17:22:10.508Z,4.83
2022-11-05T17:24:37.417Z,4.20
2022-11-05T17:27:03.954Z,4.60
2022-11-05T17:29:30.459Z,5.20
2022-11-05T17:31:57.034Z,5.10
2022-11-05T17:34:23.620Z,5.07
2022-11-05T17:36:50.127Z,5.37
2022-11-05T17:39:16.633Z,5.57
2022-11-05T17:41:43.436Z,5.50
2022-11-05T17:44:09.913Z,6.00
2022-11-05T17:46:36.450Z,5.07
2022-11-05T17:49:02.975Z,5.23
2022-11-05T17:51:29.559Z,4.80
2022-11-05T17:53:56.045Z,5.53
2022-11-05T17:56:33.486Z,5.37
2022-11-05T17:59:01.004Z,5.10
2022-11-05T18:01:27.708Z,6.10
2022-11-05T18:03:54.285Z,5.67
2022-11-05T18:06:20.764Z,5.60
2022-11-05T18:08:47.268Z,6.47
2022-11-05T18:11:13.822Z,6.70
2022-11-05T18:13:40.372Z,5.30
2022-11-05T18:16:06.873Z,6.77
2022-11-05T18:18:33.371Z,5.90
2022-11-05T18:20:59.967Z,5.60
2022-11-05T18:23:26.533Z,5.83
2022-11-05T18:25:53.046Z,5.20
2022-11-05T18:28:19.544Z,5.43
2022-11-05T18:30:46.044Z,5.17
2022-11-05T18:33:12.880Z,5.10
2022-11-05T18:35:39.585Z,12.80
2022-11-05T18:38:06.078Z,5.40
2022-11-05T18:40:32.558Z,5.93
2022-11-05T18:42:59.087Z,6.00
2022-11-05T18:45:29.578Z,6.00
2022-11-05T18:47:56.544Z,5.30
2022-11-05T18:50:23.059Z,4.60
2022-11-05T18:52:49.552Z,5.47
2022-11-05T18:55:16.118Z,5.47
2022-11-05T18:57:42.631Z,5.90
2022-11-05T19:00:09.175Z,6.03
2022-11-05T19:02:35.763Z,5.80
2022-11-05T19:07:48.844Z,4.80
2022-11-05T19:10:15.368Z,5.77
2022-11-05T19:12:41.913Z,5.03
2022-11-05T19:15:08.404Z,6.17
2022-11-05T19:17:34.953Z,7.20
2022-11-05T19:20:01.456Z,5.83
2022-11-05T19:22:27.999Z,5.97
2022-11-05T19:24:54.492Z,6.03
2022-11-05T19:27:20.979Z,6.23
2022-11-05T19:29:47.477Z,6.50
2022-11-05T19:32:14.156Z,7.23
2022-11-05T19:34:40.768Z,6.80
2022-11-05T19:37:08.114Z,6.33
2022-11-05T19:39:34.638Z,7.47
2022-11-05T19:42:04.123Z,6.37
2022-11-05T19:44:31.377Z,7.27
2022-11-05T19:46:57.916Z,8.27
2022-11-05T19:49:24.383Z,6.83
2022-11-05T19:51:51.020Z,6.50
2022-11-05T19:54:17.583Z,6.83
2022-11-05T19:56:44.146Z,7.10
2022-11-05T19:59:10.656Z,7.03
2022-11-05T20:01:37.343Z,6.73
2022-11-05T20:04:04.723Z,7.00
2022-11-05T20:06:32.147Z,6.97
2022-11-05T20:11:45.266Z,7.30
2022-11-05T20:14:11.839Z,7.67
2022-11-05T20:16:39.069Z,8.07
2022-11-05T20:19:05.571Z,6.63
2022-11-05T20:21:32.052Z,6.80
2022-11-05T20:23:59.270Z,7.40
2022-11-05T20:26:25.771Z,7.30
2022-11-05T20:28:52.327Z,7.37
2022-11-05T20:31:18.847Z,7.37
2022-11-05T20:33:45.353Z,6.90
2022-11-05T20:36:11.884Z,7.37
2022-11-05T20:38:38.381Z,7.43
2022-11-05T20:41:04.892Z,8.07
2022-11-05T20:43:31.371Z,6.40
2022-11-05T20:45:57.873Z,7.50
2022-11-05T20:48:24.498Z,7.77
2022-11-05T20:50:50.998Z,8.03
2022-11-05T20:53:17.563Z,7.53
2022-11-05T20:55:44.170Z,7.40
2022-11-05T20:58:10.980Z,7.40
2022-11-05T21:00:37.637Z,7.43
2022-11-05T21:03:04.157Z,7.70
2022-11-05T21:05:35.346Z,6.93
2022-11-05T21:08:02.198Z,6.90
2022-11-05T21:10:28.678Z,6.90
2022-11-05T21:12:55.321Z,6.80
2022-11-05T21:15:23.139Z,7.53
2022-11-05T21:17:50.265Z,6.53
2022-11-05T21:20:16.785Z,6.20
2022-11-05T21:22:45.269Z,6.83
2022-11-05T21:25:11.779Z,7.63
2022-11-05T21:27:43.303Z,6.67
2022-11-05T21:30:10.130Z,7.30
2022-11-05T21:32:36.754Z,6.30
2022-11-05T21:35:03.236Z,7.40
2022-11-05T21:37:29.776Z,8.03
2022-11-05T21:39:56.396Z,7.47
2022-11-05T21:42:22.955Z,7.90
2022-11-05T21:44:49.669Z,7.90
2022-11-05T21:47:16.219Z,7.00
2022-11-05T21:49:42.713Z,6.07
2022-11-05T21:52:27.990Z,6.77
2022-11-05T21:55:13.028Z,6.80
2022-11-05T21:57:58.256Z,6.80
2022-11-05T22:00:24.767Z,7.33
2022-11-05T22:02:51.603Z,7.10
2022-11-05T22:05:18.386Z,6.40
2022-11-05T22:07:44.919Z,7.40
2022-11-05T22:10:15.844Z,8.27
2022-11-05T22:12:42.945Z,7.70
2022-11-05T22:15:09.430Z,7.40
2022-11-05T22:17:35.923Z,7.30
2022-11-05T22:20:02.997Z,7.27
2022-11-05T22:22:29.485Z,8.20
2022-11-05T22:24:56.009Z,7.73
2022-11-05T22:27:22.538Z,8.20
2022-11-05T22:29:49.048Z,7.40
2022-11-05T22:32:15.596Z,7.70
2022-11-05T22:34:42.124Z,7.87
2022-11-05T22:37:08.687Z,8.07
2022-11-05T22:39:35.190Z,8.20
2022-11-05T22:42:07.082Z,7.90
2022-11-05T22:44:35.070Z,8.87
2022-11-05T22:47:01.559Z,7.90
2022-11-05T22:49:28.109Z,8.27
2022-11-05T22:51:54.629Z,9.37
2022-11-05T22:54:21.102Z,8.57
2022-11-05T22:56:50.084Z,9.20
2022-11-05T22:59:16.571Z,9.77
2022-11-05T23:01:43.192Z,9.27
2022-11-05T23:04:09.778Z,10.47
2022-11-05T23:06:55.123Z,9.43
2022-11-05T23:09:40.222Z,8.97
2022-11-05T23:12:06.726Z,10.23
2022-11-05T23:14:33.194Z,9.43
2022-11-05T23:17:18.555Z,10.03
2022-11-05T23:20:04.058Z,10.40
2022-11-05T23:22:49.225Z,10.73
2022-11-05T23:25:17.122Z,9.10
2022-11-05T23:27:43.641Z,10.00
2022-11-05T23:30:10.127Z,10.80
2022-11-05T23:32:36.638Z,10.90
2022-11-05T23:35:03.158Z,9.43
2022-11-05T23:37:48.411Z,10.40
2022-11-05T23:40:15.417Z,8.90
2022-11-05T23:43:00.763Z,10.10
2022-11-05T23:45:46.182Z,9.50
2022-11-05T23:48:16.661Z,10.80
2022-11-05T23:50:43.397Z,10.20
2022-11-05T23:53:09.961Z,10.57
2022-11-05T23:55:36.453Z,9.77
2022-11-05T23:58:02.999Z,10.67
